Flight Track Log - Related Links

Times and Time Zones

All times are in EDT time to prevent confusion due to time zone crossing. See the FDX1347 flight status page for this flight to view local times or setup timezone preferences in your user account.

Time Position Orientation Groundspeed Altitude Reporting Facility
EDT Latitude Longitude Course Direction KTS MPH feet Rate Location/Type
Fri 09:56:38 PM 42.7725 -73.8044 216° Southwest 171 197 1,700  Level Boston Center
Fri 09:57:08 PM 42.8003 -73.8167 342° North 204 235 2,700 2,111 Climbing Boston Center
Fri 09:57:32 PM 42.8081 -73.8486 288° West 224 258 3,600 3,035 Climbing Boston Center
Fri 09:58:33 PM 42.7950 -73.9478 260° West 269 310 7,000 3,344 Climbing Boston Center
Fri 09:59:34 PM 42.7528 -74.0472 240° Southwest 289 333 10,400 2,311 Climbing Boston Center
Fri 10:00:35 PM 42.6972 -74.1519 234° Southwest 352 405 11,700 1,918 Climbing Boston Center
Fri 10:01:36 PM 42.6347 -74.2703 234° Southwest 384 442 14,300 2,147 Climbing Boston Center
Fri 10:02:00 PM 42.5024 -74.5810 216° Southwest  Level FlightAware Approximate
Fri 10:07:09 PM 42.2280 -75.0180 234° Southwest 481 554 25,800  Level FlightAware ADS-B
Fri 10:07:45 PM 42.1790 -75.1070 234° Southwest 485 558 27,100 2,091 Climbing FlightAware ADS-B
Fri 10:08:15 PM 42.1380 -75.1800 234° Southwest 489 563 28,100 2,455 Climbing FlightAware ADS-B
Fri 10:09:57 PM 42.0160 -75.4320 243° Southwest 460 529 32,500 2,481 Climbing FlightAware ADS-B
Fri 10:10:28 PM 41.9860 -75.5080 243° Southwest 456 525 33,600 2,100 Climbing FlightAware ADS-B
Fri 10:10:57 PM 41.9580 -75.5800 242° Southwest 451 519 34,600 2,034 Climbing FlightAware ADS-B
Fri 10:11:27 PM 41.9280 -75.6560 243° Southwest 447 514 35,600 2,195 Climbing FlightAware ADS-B
Fri 10:11:38 PM 41.9182 -75.6802 243° Southwest 441 507 36,100 2,108 Climbing FlightAware ADS-B (CYYZ)
Fri 10:12:04 PM 41.8950 -75.7400 243° Southwest 437 503 36,900 1,267 Climbing FlightAware ADS-B
Fri 10:13:08 PM 41.8350 -75.8950 243° Southwest 424 488 38,000 880 Climbing FlightAware ADS-B
Fri 10:13:19 PM 41.8253 -75.9201 243° Southwest 421 484 38,000  Level FlightAware ADS-B (CYYZ)
Fri 10:13:53 PM 41.8001 -75.9849 243° Southwest 423 487 38,000  Level FlightAware ADS-B (CYYZ)
Fri 10:14:01 PM 41.7870 -76.0200 243° Southwest 425 489 38,000  Level FlightAware ADS-B
Fri 10:14:31 PM 41.7590 -76.0900 243° Southwest 430 495 38,000  Level FlightAware ADS-B
Fri 10:14:39 PM 41.7516 -76.1088 243° Southwest 429 494 38,000  Level FlightAware ADS-B (CYYZ)
Fri 10:15:10 PM 41.7240 -76.1800 243° Southwest 434 499 38,000  Level FlightAware ADS-B
Fri 10:15:25 PM 41.7101 -76.2131 243° Southwest 434 499 38,000  Level FlightAware ADS-B (CYYZ)
Fri 10:15:39 PM 41.6960 -76.2490 243° Southwest 437 503 38,000  Level FlightAware ADS-B
Fri 10:16:10 PM 41.6669 -76.3228 243° Southwest 438 504 38,000  Level FlightAware ADS-B (CYYZ)
Fri 10:16:15 PM 41.6610 -76.3370 243° Southwest 438 504 38,000  Level FlightAware ADS-B
Fri 10:16:23 PM 41.6614 -76.3372 242° Southwest 438 504 38,000  Level FlightAware ADS-B
Fri 10:16:51 PM 41.6270 -76.4230 243° Southwest 440 506 38,000  Level FlightAware ADS-B
Fri 10:16:55 PM 41.6247 -76.4305 243° Southwest 438 504 38,000  Level FlightAware ADS-B (CYYZ)
Fri 10:17:21 PM 41.5990 -76.4950 243° Southwest 439 505 38,000  Level FlightAware ADS-B
Fri 10:17:40 PM 41.5809 -76.5404 243° Southwest 436 502 38,000  Level FlightAware ADS-B (CYYZ)
Fri 10:17:51 PM 41.5700 -76.5670 243° Southwest 437 503 38,000  Level FlightAware ADS-B
Fri 10:18:02 PM 41.5617 -76.5880 242° Southwest 436 502 38,000  Level FlightAware ADS-B
Fri 10:18:10 PM 41.5531 -76.6092 242° Southwest 436 502 38,000  Level FlightAware ADS-B (CYYZ)
Fri 10:18:27 PM 41.5370 -76.6520 242° Southwest 436 502 38,000  Level FlightAware ADS-B
Fri 10:18:41 PM 41.5239 -76.6826 242° Southwest 433 498 38,000  Level FlightAware ADS-B (CYYZ)
Fri 10:19:04 PM 41.5020 -76.7370 242° Southwest 434 499 38,000  Level FlightAware ADS-B
Fri 10:19:11 PM 41.4951 -76.7557 242° Southwest 433 498 38,000  Level FlightAware ADS-B (CYYZ)
Fri 10:19:56 PM 41.4534 -76.8590 242° Southwest 432 497 38,000  Level FlightAware ADS-B (CYYZ)
Fri 10:20:10 PM 41.4400 -76.8920 242° Southwest 433 498 38,000  Level FlightAware ADS-B
Fri 10:20:27 PM 41.4246 -76.9294 242° Southwest 432 497 38,000  Level FlightAware ADS-B (CYYZ)
Fri 10:20:39 PM 41.4120 -76.9620 242° Southwest 432 497 38,000  Level FlightAware ADS-B
Fri 10:20:57 PM 41.3962 -76.9996 242° Southwest 431 496 38,000  Level FlightAware ADS-B (CYYZ)
Fri 10:21:15 PM 41.3780 -77.0460 242° Southwest 431 496 38,000  Level FlightAware ADS-B
Fri 10:21:27 PM 41.3675 -77.0717 242° Southwest 429 494 38,000  Level FlightAware ADS-B (CYYZ)
Fri 10:21:46 PM 41.3500 -77.1160 242° Southwest 430 495 38,000  Level FlightAware ADS-B
Fri 10:22:12 PM 41.3241 -77.1784 242° Southwest 429 494 38,000  Level FlightAware ADS-B (CYYZ)
Fri 10:22:21 PM 41.3190 -77.1900 242° Southwest 430 495 38,000  Level FlightAware ADS-B
Fri 10:22:57 PM 41.2850 -77.2734 242° Southwest 428 493 38,000  Level FlightAware ADS-B (CYYZ)
Fri 10:23:00 PM 41.2790 -77.2870 242° Southwest 430 495 38,000  Level FlightAware ADS-B
Fri 10:23:42 PM 41.2402 -77.3846 242° Southwest 428 493 38,000  Level FlightAware ADS-B (CYYZ)
Fri 10:23:46 PM 41.2098 -77.4586 243° Southwest 425 489 38,000  Level FlightAware ADS-B (KWWD)
Fri 10:24:28 PM 41.1956 -77.4933 242° Southwest 429 494 38,000  Level FlightAware ADS-B (CYYZ)
Fri 10:25:13 PM 41.1542 -77.5923 242° Southwest 429 494 38,000  Level FlightAware ADS-B (CYYZ)
Fri 10:25:58 PM 41.1104 -77.6986 242° Southwest 429 494 38,000  Level FlightAware ADS-B (CYYZ)
Fri 10:26:29 PM 41.0806 -77.7701 242° Southwest 430 495 38,000  Level FlightAware ADS-B (CYYZ)
Fri 10:26:37 PM 41.0470 -77.8510 241° Southwest 431 496 38,000  Level FlightAware ADS-B (KWWD)
Fri 10:27:14 PM 41.0373 -77.8742 242° Southwest 431 496 38,000  Level FlightAware ADS-B (CYYZ)
Fri 10:27:59 PM 40.9936 -77.9806 242° Southwest 433 498 38,000  Level FlightAware ADS-B (CYYZ)
Fri 10:28:44 PM 40.9494 -78.0851 242° Southwest 434 499 38,000  Level FlightAware ADS-B (CYYZ)
Fri 10:29:30 PM 40.9075 -78.1849 242° Southwest 435 501 38,000  Level FlightAware ADS-B (CYYZ)
Fri 10:30:00 PM 40.8760 -78.2593 242° Southwest 435 501 38,000  Level FlightAware ADS-B (CYYZ)
Fri 10:30:09 PM 40.8404 -78.3453 241° Southwest 436 502 38,000  Level FlightAware ADS-B (KWWD)
Fri 10:30:45 PM 40.8320 -78.3638 241° Southwest 436 502 38,000  Level FlightAware ADS-B (CYYZ)
Fri 10:30:49 PM 40.8015 -78.4356 241° Southwest 437 503 38,000  Level FlightAware ADS-B (KWWD)
Fri 10:31:31 PM 40.7870 -78.4705 241° Southwest 436 502 38,000  Level FlightAware ADS-B (CYYZ)
Fri 10:32:00 PM 40.7613 -78.5309 241° Southwest 437 503 38,000  Level FlightAware ADS-B (CYYZ)
Fri 10:32:07 PM 40.7239 -78.6171 241° Southwest 438 504 38,000  Level FlightAware ADS-B (KWWD)
Fri 10:32:46 PM 40.7119 -78.6452 241° Southwest 439 505 38,000  Level FlightAware ADS-B (CYYZ)
Fri 10:32:57 PM 40.6745 -78.7336 242° Southwest 437 503 38,000  Level FlightAware ADS-B (KWWD)
Fri 10:33:31 PM 40.6669 -78.7523 241° Southwest 440 506 38,000  Level FlightAware ADS-B (CYYZ)
Fri 10:33:33 PM 40.6380 -78.8175 242° Southwest 437 503 38,000  Level FlightAware ADS-B (KWWD)
Fri 10:34:17 PM 40.6213 -78.8572 241° Southwest 441 507 38,000  Level FlightAware ADS-B (CYYZ)
Fri 10:34:47 PM 40.5913 -78.9273 241° Southwest 441 507 38,000  Level FlightAware ADS-B (CYYZ)
Fri 10:35:32 PM 40.5453 -79.0326 241° Southwest 442 509 38,000  Level FlightAware ADS-B (CYYZ)
Fri 10:36:17 PM 40.4995 -79.1401 241° Southwest 443 510 38,000  Level FlightAware ADS-B (CYYZ)
Fri 10:37:02 PM 40.4534 -79.2453 241° Southwest 444 511 38,000  Level FlightAware ADS-B (CYYZ)
Fri 10:37:33 PM 40.4224 -79.3157 241° Southwest 444 511 38,000  Level FlightAware ADS-B (CYYZ)
Fri 10:37:48 PM 40.3796 -79.4138 241° Southwest 441 507 38,000  Level FlightAware ADS-B (KWWD)
Fri 10:38:18 PM 40.3884 -79.3928 241° Southwest 444 511 38,000  Level FlightAware ADS-B (CYYZ)
Fri 10:38:23 PM 40.3430 -79.4979 241° Southwest 441 507 38,000  Level FlightAware ADS-B (KWWD)
Fri 10:39:03 PM 40.3343 -79.5167 241° Southwest 445 512 38,000  Level FlightAware ADS-B (CYYZ)
Fri 10:39:41 PM 40.3136 -79.5634 241° Southwest 446 513 38,000  Level FlightAware ADS-B (CYYZ)
Fri 10:39:55 PM 40.2759 -79.6499 240° Southwest 447 514 38,000  Level FlightAware ADS-B (EPLB / LUZ)
Fri 10:41:19 PM 40.1890 -79.8465 240° Southwest 446 513 38,000  Level FlightAware ADS-B (CYYZ)
Fri 10:41:32 PM 40.1742 -79.8791 240° Southwest 446 513 38,000  Level FlightAware ADS-B
Fri 10:42:04 PM 40.1427 -79.9488 240° Southwest 444 511 38,000  Level FlightAware ADS-B (CYYZ)
Fri 10:42:07 PM 40.1478 -79.9373 240° Southwest 444 511 38,000  Level FlightAware ADS-B
Fri 10:42:34 PM 40.1113 -80.0206 240° Southwest 444 511 38,000  Level FlightAware ADS-B (CYYZ)
Fri 10:42:53 PM 40.1478 -79.9373 240° Southwest 442 509 38,000  Level FlightAware ADS-B
Fri 10:43:05 PM 40.0798 -80.0898 240° Southwest 441 507 38,000  Level FlightAware ADS-B (CYYZ)
Fri 10:43:50 PM 40.0333 -80.1929 240° Southwest 440 506 38,000  Level FlightAware ADS-B (CYYZ)
Fri 10:44:19 PM 40.0064 -80.2549 240° Southwest 440 506 38,000  Level FlightAware ADS-B (CYYZ)
Fri 10:45:52 PM 39.9128 -80.4601 240° Southwest 439 505 38,000  Level FlightAware ADS-B (CYYZ)
Fri 10:46:33 PM 39.8678 -80.5614 240° Southwest 441 507 38,000  Level Indianapolis Center
Fri 10:47:21 PM 39.8181 -80.6689 239° Southwest 438 504 38,000  Level Cleveland Center
Fri 10:48:48 PM 39.7272 -80.8685 239° Southwest 441 507 38,000  Level FlightAware ADS-B
Fri 10:54:12 PM 39.3844 -81.6045 239° Southwest 442 509 38,000  Level FlightAware ADS-B
Fri 10:54:52 PM 39.3410 -81.6968 239° Southwest 443 510 38,000  Level FlightAware ADS-B
Fri 10:55:39 PM 39.2940 -81.7960 239° Southwest 444 511 38,000  Level FlightAware ADS-B
Fri 10:56:19 PM 39.2485 -81.8931 239° Southwest 444 511 38,000  Level FlightAware ADS-B
Fri 10:57:19 PM 39.1849 -82.0266 239° Southwest 445 512 38,000  Level FlightAware ADS-B
Fri 10:57:58 PM 39.1469 -82.1055 238° Southwest 445 512 38,000  Level FlightAware ADS-B
Fri 10:58:28 PM 39.1091 -82.1844 238° Southwest 445 512 38,000  Level FlightAware ADS-B
Fri 10:58:58 PM 39.0811 -82.2429 238° Southwest 445 512 38,000  Level FlightAware ADS-B
Fri 10:59:29 PM 39.0446 -82.3195 238° Southwest 445 512 38,000  Level FlightAware ADS-B
Fri 10:59:59 PM 39.0111 -82.3894 238° Southwest 445 512 38,000  Level FlightAware ADS-B
Fri 11:00:38 PM 38.9688 -82.4769 238° Southwest 445 512 38,000  Level FlightAware ADS-B
Fri 11:01:09 PM 38.9384 -82.5398 238° Southwest 446 513 38,000  Level FlightAware ADS-B
Fri 11:01:43 PM 38.9007 -82.6160 238° Southwest 445 512 38,000  Level FlightAware ADS-B
Fri 11:02:13 PM 38.8656 -82.6899 238° Southwest 445 512 38,000  Level FlightAware ADS-B
Fri 11:02:43 PM 38.8323 -82.7571 238° Southwest 445 512 38,000  Level FlightAware ADS-B
Fri 11:03:13 PM 38.7996 -82.8240 238° Southwest 446 513 38,000  Level FlightAware ADS-B
Fri 11:03:43 PM 38.7673 -82.8911 238° Southwest 446 513 38,000  Level FlightAware ADS-B
Fri 11:04:13 PM 38.7344 -82.9582 238° Southwest 446 513 38,000  Level FlightAware ADS-B
Fri 11:04:55 PM 38.6882 -83.0522 238° Southwest 446 513 38,000  Level FlightAware ADS-B
Fri 11:05:38 PM 38.6402 -83.1483 238° Southwest 447 514 38,000  Level FlightAware ADS-B
Fri 11:06:08 PM 38.6079 -83.2130 238° Southwest 448 516 38,000  Level FlightAware ADS-B
Fri 11:06:39 PM 38.5735 -83.2845 238° Southwest 448 516 38,000  Level FlightAware ADS-B
Fri 11:07:10 PM 38.5389 -83.3538 238° Southwest 449 517 38,000  Level FlightAware ADS-B
Fri 11:07:47 PM 38.4980 -83.4363 238° Southwest 449 517 38,000  Level FlightAware ADS-B
Fri 11:08:27 PM 38.4556 -83.5209 238° Southwest 447 514 38,000  Level FlightAware ADS-B
Fri 11:09:07 PM 38.4109 -83.6096 238° Southwest 447 514 38,000  Level FlightAware ADS-B
Fri 11:09:52 PM 38.3590 -83.7138 237° Southwest 446 513 38,000  Level FlightAware ADS-B
Fri 11:10:24 PM 38.3260 -83.7780 237° Southwest 447 514 38,000  Level FlightAware ADS-B
Fri 11:10:54 PM 38.2895 -83.8510 237° Southwest 447 514 38,000  Level FlightAware ADS-B
Fri 11:12:15 PM 38.1991 -84.0296 237° Southwest 445 512 38,000  Level FlightAware ADS-B
Fri 11:14:43 PM 38.0336 -84.3540 237° Southwest 445 512 38,000  Level FlightAware ADS-B (KCVG)
Fri 11:15:39 PM 37.9710 -84.4767 237° Southwest 447 514 38,000  Level FlightAware ADS-B (KCVG)
Fri 11:16:11 PM 37.9352 -84.5447 237° Southwest 447 514 38,000  Level FlightAware ADS-B (KCVG)
Fri 11:16:55 PM 37.9034 -84.6063 237° Southwest 448 516 38,000  Level FlightAware ADS-B (KCVG)
Fri 11:17:49 PM 37.8237 -84.7621 237° Southwest 449 517 38,000  Level FlightAware ADS-B
Fri 11:18:30 PM 37.7769 -84.8521 237° Southwest 449 517 38,000  Level FlightAware ADS-B (KCVG)
Fri 11:19:48 PM 37.6877 -85.0231 237° Southwest 449 517 38,000  Level FlightAware ADS-B
Fri 11:20:49 PM 37.6177 -85.1567 237° Southwest 450 518 38,000  Level FlightAware ADS-B
Fri 11:21:52 PM 37.5466 -85.2920 237° Southwest 449 517 38,000  Level FlightAware ADS-B
Fri 11:23:03 PM 37.4640 -85.4479 236° Southwest 446 513 38,000  Level FlightAware ADS-B
Fri 11:24:02 PM 37.4008 -85.5663 236° Southwest 444 511 38,000  Level FlightAware ADS-B
Fri 11:26:00 PM 37.2613 -85.8279 236° Southwest 445 512 38,000  Level FlightAware ADS-B
Fri 11:27:04 PM 37.1878 -85.9631 236° Southwest 447 514 38,000  Level FlightAware ADS-B
Fri 11:29:03 PM 37.1389 -86.0553 236° Southwest 449 517 38,000 -201 Level FlightAware ADS-B
Fri 11:31:03 PM 36.9103 -86.4773 240° Southwest 449 517 37,200 -573 Descending FlightAware ADS-B
Fri 11:31:40 PM 36.9944 -86.3223 236° Southwest 450 518 36,500 -857 Descending FlightAware ADS-B
Fri 11:32:27 PM 36.8356 -86.6572 236° Southwest 447 514 36,000 -396 Descending Indianapolis Center
Fri 11:37:59 PM 36.4877 -87.4335 241° Southwest 468 539 34,000 -311 Descending FlightAware ADS-B
Fri 11:38:53 PM 36.4287 -87.5629 241° Southwest 472 543 34,000  Level FlightAware ADS-B
Fri 11:39:43 PM 36.3753 -87.6813 241° Southwest 475 547 34,000  Level FlightAware ADS-B
Fri 11:40:25 PM 36.3315 -87.7746 238° Southwest 463 533 34,000 -975 Level FlightAware ADS-B
Fri 11:43:00 PM 36.1059 -88.0714 226° Southwest 456 525 30,800 -1,050 Descending FlightAware ADS-B
Fri 11:43:45 PM 36.0531 -88.1425 226° Southwest 456 525 30,500 -736 Descending Memphis Center
Fri 11:44:46 PM 35.9714 -88.2561 228° Southwest 451 519 29,500 -984 Descending Memphis Center
Fri 11:45:47 PM 35.9331 -88.3953 251° West 431 496 28,500 -1,082 Descending Memphis Center
Fri 11:46:48 PM 35.8914 -88.5322 249° West 428 493 27,300 -1,180 Descending Memphis Center
Fri 11:47:49 PM 35.8508 -88.6678 250° West 425 489 26,100 -1,131 Descending Memphis Center
Fri 11:48:50 PM 35.8103 -88.8028 250° West 424 488 25,000 -1,033 Descending Memphis Center
Fri 11:49:51 PM 35.7703 -88.9381 250° West 421 484 24,000 -1,279 Descending Memphis Center
Fri 11:50:52 PM 35.7272 -89.0689 248° West 416 479 22,400 -2,213 Descending Memphis Center
Fri 11:51:53 PM 35.6386 -89.1886 228° Southwest 410 472 19,500 -2,361 Descending Memphis Center
Fri 11:52:54 PM 35.5628 -89.2872 227° Southwest 403 464 17,600 -1,918 Descending Memphis Center
Fri 11:53:55 PM 35.4906 -89.3781 226° Southwest 383 441 15,600 -1,525 Descending Memphis Center
Fri 11:54:56 PM 35.4228 -89.4669 227° Southwest 365 420 14,500 -1,082 Descending Memphis Center
Fri 11:55:57 PM 35.3542 -89.5533 226° Southwest 361 415 13,400 -1,082 Descending Memphis Center
Fri 11:56:58 PM 35.2889 -89.6375 226° Southwest 348 400 12,300 -1,082 Descending Memphis Center
Fri 11:57:59 PM 35.2300 -89.7119 226° Southwest 318 366 11,200 -1,210 Descending Memphis Center
Fri 11:59:02 PM 35.1636 -89.7944 225° Southwest 291 335 9,800 -968 Descending Memphis Center
Sat 12:00:03 AM 35.1122 -89.8583 225° Southwest 274 315 9,200 -934 Descending Memphis Center
Sat 12:01:04 AM 35.0450 -89.8658 185° South 253 291 7,900 -1,328 Descending Memphis Center
Sat 12:02:05 AM 34.9728 -89.8642 179° South 254 292 6,500 -1,377 Descending Memphis Center
Sat 12:03:06 AM 34.9053 -89.8631 179° South 250 288 5,100 -1,475 Descending Memphis Center
Sat 12:04:07 AM 34.8436 -89.8681 184° South 240 276 3,500 -1,475 Descending Memphis Center
Sat 12:05:08 AM 34.8317 -89.9256 256° West 201 231 2,100 -738 Descending Memphis Center
Sat 12:06:09 AM 34.8739 -89.9583 328° Northwest 189 217 2,000 -50 Descending Memphis Center
Sat 12:07:09 AM 34.9211 -89.9697 349° North 183 211 2,000 -298 Level Memphis Center
Sat 12:08:10 AM 34.9689 -89.9711 359° North 180 207 1,400 -639 Descending Memphis Center
Sat 12:09:11 AM 35.0078 -89.9722 359° North 158 182 700 -689 Descending Memphis Center
Sat 12:11:00 AM 35.0333 -89.9667 231° Southwest  Level FlightAware Approximate

Login

Don't have an account? Register now (free) for customized features, flight alerts, and more!